sensor_id;sensor_type;location;lat;lon;timestamp;pressure;altitude;pressure_sealevel;temperature;humidity
36378;BME280;22402;42.746;23.606;2022-10-16T00:01:05;94092.84;;;10.98;80.24
36378;BME280;22402;42.746;23.606;2022-10-16T00:03:30;94092.97;;;10.97;80.09
36378;BME280;22402;42.746;23.606;2022-10-16T00:05:59;94093.22;;;10.93;79.94
36378;BME280;22402;42.746;23.606;2022-10-16T00:08:25;94094.44;;;10.89;80.44
36378;BME280;22402;42.746;23.606;2022-10-16T00:10:50;94099.94;;;10.86;80.46
36378;BME280;22402;42.746;23.606;2022-10-16T00:13:15;94105.25;;;10.85;80.69
36378;BME280;22402;42.746;23.606;2022-10-16T00:15:41;94103.63;;;10.84;80.88
36378;BME280;22402;42.746;23.606;2022-10-16T00:18:06;94102.22;;;10.80;80.66
36378;BME280;22402;42.746;23.606;2022-10-16T00:20:34;94102.47;;;10.77;80.15
36378;BME280;22402;42.746;23.606;2022-10-16T00:22:59;94102.72;;;10.73;81.03
36378;BME280;22402;42.746;23.606;2022-10-16T00:25:25;94109.63;;;10.75;81.13
36378;BME280;22402;42.746;23.606;2022-10-16T00:27:50;94109.97;;;10.70;80.88
36378;BME280;22402;42.746;23.606;2022-10-16T00:30:15;94110.94;;;10.69;80.60
36378;BME280;22402;42.746;23.606;2022-10-16T00:32:41;94112.03;;;10.66;80.79
36378;BME280;22402;42.746;23.606;2022-10-16T00:35:06;94107.06;;;10.63;81.25
36378;BME280;22402;42.746;23.606;2022-10-16T00:37:32;94115.88;;;10.62;81.19
36378;BME280;22402;42.746;23.606;2022-10-16T00:39:57;94112.53;;;10.60;81.58
36378;BME280;22402;42.746;23.606;2022-10-16T00:42:22;94110.91;;;10.59;81.36
36378;BME280;22402;42.746;23.606;2022-10-16T00:44:53;94109.47;;;10.55;81.49
36378;BME280;22402;42.746;23.606;2022-10-16T00:49:52;94107.84;;;10.54;81.25
36378;BME280;22402;42.746;23.606;2022-10-16T00:52:19;94111.53;;;10.52;81.36
36378;BME280;22402;42.746;23.606;2022-10-16T00:54:45;94111.66;;;10.50;80.53
36378;BME280;22402;42.746;23.606;2022-10-16T00:57:11;94121.38;;;10.48;81.36
36378;BME280;22402;42.746;23.606;2022-10-16T00:59:39;94116.44;;;10.45;80.22
36378;BME280;22402;42.746;23.606;2022-10-16T01:02:08;94118.34;;;10.43;80.96
36378;BME280;22402;42.746;23.606;2022-10-16T01:04:43;94129.16;;;10.38;80.55
36378;BME280;22402;42.746;23.606;2022-10-16T01:07:19;94117.31;;;10.34;81.29
36378;BME280;22402;42.746;23.606;2022-10-16T01:17:45;94128.38;;;10.26;81.24
36378;BME280;22402;42.746;23.606;2022-10-16T01:22:48;94120.78;;;10.23;80.93
36378;BME280;22402;42.746;23.606;2022-10-16T01:26:10;94115.81;;;10.20;81.40
36378;BME280;22402;42.746;23.606;2022-10-16T01:28:38;94124.97;;;10.15;80.95
36378;BME280;22402;42.746;23.606;2022-10-16T01:31:04;94119.03;;;10.13;81.28
36378;BME280;22402;42.746;23.606;2022-10-16T01:33:36;94113.94;;;10.11;81.33
36378;BME280;22402;42.746;23.606;2022-10-16T01:36:08;94122.00;;;10.08;81.36
36378;BME280;22402;42.746;23.606;2022-10-16T01:38:37;94119.78;;;10.03;81.18
36378;BME280;22402;42.746;23.606;2022-10-16T01:41:14;94124.88;;;10.05;81.44
36378;BME280;22402;42.746;23.606;2022-10-16T01:43:45;94125.25;;;10.00;81.68
36378;BME280;22402;42.746;23.606;2022-10-16T01:46:14;94126.22;;;9.99;82.16
36378;BME280;22402;42.746;23.606;2022-10-16T01:48:42;94124.44;;;10.00;81.57
36378;BME280;22402;42.746;23.606;2022-10-16T01:51:10;94127.03;;;10.00;82.12
36378;BME280;22402;42.746;23.606;2022-10-16T01:53:37;94126.31;;;9.98;82.19
36378;BME280;22402;42.746;23.606;2022-10-16T01:56:08;94129.03;;;9.96;82.61
36378;BME280;22402;42.746;23.606;2022-10-16T01:58:37;94125.50;;;9.97;81.69
36378;BME280;22402;42.746;23.606;2022-10-16T02:01:07;94130.72;;;9.97;82.52
36378;BME280;22402;42.746;23.606;2022-10-16T02:03:36;94133.44;;;9.96;82.18
36378;BME280;22402;42.746;23.606;2022-10-16T02:06:03;94129.19;;;9.95;82.42
36378;BME280;22402;42.746;23.606;2022-10-16T02:08:29;94126.56;;;9.95;82.08
36378;BME280;22402;42.746;23.606;2022-10-16T02:10:57;94139.84;;;9.92;82.36
36378;BME280;22402;42.746;23.606;2022-10-16T02:13:29;94147.91;;;9.89;82.35
36378;BME280;22402;42.746;23.606;2022-10-16T02:15:56;94147.75;;;9.90;82.35
36378;BME280;22402;42.746;23.606;2022-10-16T02:18:21;94141.06;;;9.88;82.72
36378;BME280;22402;42.746;23.606;2022-10-16T02:20:59;94146.25;;;9.88;82.78
36378;BME280;22402;42.746;23.606;2022-10-16T02:23:35;94148.97;;;9.86;82.62
36378;BME280;22402;42.746;23.606;2022-10-16T02:26:05;94152.66;;;9.84;82.44
36378;BME280;22402;42.746;23.606;2022-10-16T02:28:40;94150.53;;;9.77;82.36
36378;BME280;22402;42.746;23.606;2022-10-16T02:31:09;94150.06;;;9.72;82.78
36378;BME280;22402;42.746;23.606;2022-10-16T02:33:38;94153.16;;;9.66;82.99
36378;BME280;22402;42.746;23.606;2022-10-16T02:36:06;94151.03;;;9.60;82.87
36378;BME280;22402;42.746;23.606;2022-10-16T02:38:32;94162.91;;;9.53;83.17
36378;BME280;22402;42.746;23.606;2022-10-16T02:40:59;94159.09;;;9.46;83.64
36378;BME280;22402;42.746;23.606;2022-10-16T02:43:25;94156.53;;;9.34;83.76
36378;BME280;22402;42.746;23.606;2022-10-16T02:45:50;94157.25;;;9.25;83.95
36378;BME280;22402;42.746;23.606;2022-10-16T02:48:16;94157.81;;;9.18;84.63
36378;BME280;22402;42.746;23.606;2022-10-16T02:50:41;94159.38;;;9.09;84.58
36378;BME280;22402;42.746;23.606;2022-10-16T02:53:06;94154.88;;;9.00;85.17
36378;BME280;22402;42.746;23.606;2022-10-16T02:55:32;94158.91;;;8.93;85.20
36378;BME280;22402;42.746;23.606;2022-10-16T02:57:57;94157.69;;;8.85;85.87
36378;BME280;22402;42.746;23.606;2022-10-16T03:00:23;94165.84;;;8.81;86.26
36378;BME280;22402;42.746;23.606;2022-10-16T03:02:48;94168.78;;;8.76;86.13
36378;BME280;22402;42.746;23.606;2022-10-16T03:05:14;94156.16;;;8.72;86.60
36378;BME280;22402;42.746;23.606;2022-10-16T03:07:39;94166.97;;;8.65;87.32
36378;BME280;22402;42.746;23.606;2022-10-16T03:10:05;94158.72;;;8.60;87.18
36378;BME280;22402;42.746;23.606;2022-10-16T03:12:31;94158.34;;;8.54;87.46
36378;BME280;22402;42.746;23.606;2022-10-16T03:14:56;94176.78;;;8.51;87.57
36378;BME280;22402;42.746;23.606;2022-10-16T03:17:22;94165.16;;;8.43;87.86
36378;BME280;22402;42.746;23.606;2022-10-16T03:19:48;94176.50;;;8.42;88.08
36378;BME280;22402;42.746;23.606;2022-10-16T03:22:14;94174.84;;;8.41;88.12
36378;BME280;22402;42.746;23.606;2022-10-16T03:24:39;94171.75;;;8.36;88.72
36378;BME280;22402;42.746;23.606;2022-10-16T03:27:04;94170.28;;;8.32;88.63
36378;BME280;22402;42.746;23.606;2022-10-16T03:29:30;94169.69;;;8.29;88.87
36378;BME280;22402;42.746;23.606;2022-10-16T03:31:56;94177.72;;;8.26;89.06
36378;BME280;22402;42.746;23.606;2022-10-16T03:34:21;94174.75;;;8.19;88.64
36378;BME280;22402;42.746;23.606;2022-10-16T03:36:47;94179.94;;;8.19;88.92
36378;BME280;22402;42.746;23.606;2022-10-16T03:39:12;94184.53;;;8.15;89.46
36378;BME280;22402;42.746;23.606;2022-10-16T03:41:37;94178.72;;;8.12;89.29
36378;BME280;22402;42.746;23.606;2022-10-16T03:44:03;94179.78;;;8.09;89.71
36378;BME280;22402;42.746;23.606;2022-10-16T03:46:28;94180.84;;;8.07;89.69
36378;BME280;22402;42.746;23.606;2022-10-16T03:51:28;94173.38;;;8.02;90.14
36378;BME280;22402;42.746;23.606;2022-10-16T03:53:54;94174.41;;;7.99;89.81
36378;BME280;22402;42.746;23.606;2022-10-16T03:56:19;94178.91;;;7.97;90.06
36378;BME280;22402;42.746;23.606;2022-10-16T03:58:45;94169.44;;;7.96;90.38
36378;BME280;22402;42.746;23.606;2022-10-16T04:01:10;94177.34;;;7.95;90.18
36378;BME280;22402;42.746;23.606;2022-10-16T04:03:36;94179.22;;;7.93;90.18
36378;BME280;22402;42.746;23.606;2022-10-16T04:06:01;94171.78;;;7.88;90.52
36378;BME280;22402;42.746;23.606;2022-10-16T04:08:29;94173.66;;;7.86;90.49
36378;BME280;22402;42.746;23.606;2022-10-16T04:10:55;94170.31;;;7.84;90.41
36378;BME280;22402;42.746;23.606;2022-10-16T04:13:20;94169.59;;;7.82;90.71
36378;BME280;22402;42.746;23.606;2022-10-16T04:15:46;94171.50;;;7.80;90.31
36378;BME280;22402;42.746;23.606;2022-10-16T04:18:11;94174.09;;;7.80;91.05
36378;BME280;22402;42.746;23.606;2022-10-16T04:20:37;94169.94;;;7.78;90.81
36378;BME280;22402;42.746;23.606;2022-10-16T04:23:02;94177.81;;;7.76;90.98
36378;BME280;22402;42.746;23.606;2022-10-16T04:25:28;94179.00;;;7.72;90.88
36378;BME280;22402;42.746;23.606;2022-10-16T04:27:54;94181.59;;;7.72;90.93
36378;BME280;22402;42.746;23.606;2022-10-16T04:30:20;94174.03;;;7.69;90.86
36378;BME280;22402;42.746;23.606;2022-10-16T04:32:52;94180.97;;;7.68;91.26
36378;BME280;22402;42.746;23.606;2022-10-16T04:35:19;94180.25;;;7.66;91.80
36378;BME280;22402;42.746;23.606;2022-10-16T04:37:47;94181.28;;;7.64;91.90
36378;BME280;22402;42.746;23.606;2022-10-16T04:40:13;94187.53;;;7.61;91.93
36378;BME280;22402;42.746;23.606;2022-10-16T04:42:38;94180.81;;;7.59;91.78
36378;BME280;22402;42.746;23.606;2022-10-16T04:45:05;94188.59;;;7.59;92.24
36378;BME280;22402;42.746;23.606;2022-10-16T04:47:31;94197.31;;;7.58;92.67
36378;BME280;22402;42.746;23.606;2022-10-16T04:49:56;94199.06;;;7.57;92.38
36378;BME280;22402;42.746;23.606;2022-10-16T04:52:22;94202.50;;;7.58;92.21
36378;BME280;22402;42.746;23.606;2022-10-16T04:54:47;94205.09;;;7.58;92.46
36378;BME280;22402;42.746;23.606;2022-10-16T04:57:13;94197.44;;;7.56;92.81
36378;BME280;22402;42.746;23.606;2022-10-16T04:59:38;94208.63;;;7.57;93.26
36378;BME280;22402;42.746;23.606;2022-10-16T05:02:03;94210.28;;;7.58;93.76
36378;BME280;22402;42.746;23.606;2022-10-16T05:04:29;94203.31;;;7.58;93.81
36378;BME280;22402;42.746;23.606;2022-10-16T05:06:54;94204.88;;;7.61;93.39
36378;BME280;22402;42.746;23.606;2022-10-16T05:09:20;94203.94;;;7.62;93.75
36378;BME280;22402;42.746;23.606;2022-10-16T05:11:45;94212.22;;;7.67;93.86
36378;BME280;22402;42.746;23.606;2022-10-16T05:14:10;94211.69;;;7.74;93.75
36378;BME280;22402;42.746;23.606;2022-10-16T05:16:36;94216.44;;;7.81;93.17
36378;BME280;22402;42.746;23.606;2022-10-16T05:19:01;94216.84;;;7.87;93.39
36378;BME280;22402;42.746;23.606;2022-10-16T05:21:29;94218.06;;;7.94;93.56
36378;BME280;22402;42.746;23.606;2022-10-16T05:23:54;94225.19;;;8.04;93.82
36378;BME280;22402;42.746;23.606;2022-10-16T05:26:19;94237.31;;;8.16;93.33
36378;BME280;22402;42.746;23.606;2022-10-16T05:28:45;94234.88;;;8.26;93.44
36378;BME280;22402;42.746;23.606;2022-10-16T05:31:10;94232.66;;;8.32;92.51
36378;BME280;22402;42.746;23.606;2022-10-16T05:33:39;94221.75;;;8.40;92.32
36378;BME280;22402;42.746;23.606;2022-10-16T05:36:06;94224.72;;;8.47;91.97
36378;BME280;22402;42.746;23.606;2022-10-16T05:38:31;94233.59;;;8.55;92.15
36378;BME280;22402;42.746;23.606;2022-10-16T05:40:57;94233.75;;;8.65;91.34
36378;BME280;22402;42.746;23.606;2022-10-16T05:43:28;94234.13;;;8.72;91.33
36378;BME280;22402;42.746;23.606;2022-10-16T05:45:59;94236.97;;;8.80;90.99
36378;BME280;22402;42.746;23.606;2022-10-16T05:48:35;94246.69;;;8.89;90.94
36378;BME280;22402;42.746;23.606;2022-10-16T05:51:06;94246.84;;;8.99;90.87
36378;BME280;22402;42.746;23.606;2022-10-16T05:53:36;94254.06;;;9.06;90.92
36378;BME280;22402;42.746;23.606;2022-10-16T05:56:02;94256.91;;;9.15;90.38
36378;BME280;22402;42.746;23.606;2022-10-16T05:58:38;94256.00;;;9.27;90.46
36378;BME280;22402;42.746;23.606;2022-10-16T06:01:18;94257.31;;;9.44;89.90
36378;BME280;22402;42.746;23.606;2022-10-16T06:03:44;94265.47;;;9.62;88.94
36378;BME280;22402;42.746;23.606;2022-10-16T06:06:20;94260.16;;;9.74;88.39
36378;BME280;22402;42.746;23.606;2022-10-16T06:08:47;94259.19;;;9.87;87.59
36378;BME280;22402;42.746;23.606;2022-10-16T06:11:15;94259.19;;;9.98;87.04
36378;BME280;22402;42.746;23.606;2022-10-16T06:13:41;94269.59;;;10.09;86.28
36378;BME280;22402;42.746;23.606;2022-10-16T06:16:08;94268.13;;;10.16;85.13
36378;BME280;22402;42.746;23.606;2022-10-16T06:18:34;94285.78;;;10.24;85.31
36378;BME280;22402;42.746;23.606;2022-10-16T06:21:07;94283.28;;;10.34;85.08
36378;BME280;22402;42.746;23.606;2022-10-16T06:23:34;94275.00;;;10.40;85.12
36378;BME280;22402;42.746;23.606;2022-10-16T06:26:07;94281.13;;;10.50;84.33
36378;BME280;22402;42.746;23.606;2022-10-16T06:28:33;94292.81;;;10.56;83.66
36378;BME280;22402;42.746;23.606;2022-10-16T06:30:59;94289.59;;;10.63;83.91
36378;BME280;22402;42.746;23.606;2022-10-16T06:33:25;94294.06;;;10.72;83.77
36378;BME280;22402;42.746;23.606;2022-10-16T06:35:50;94291.78;;;10.79;84.08
36378;BME280;22402;42.746;23.606;2022-10-16T06:38:15;94298.44;;;10.83;83.52
36378;BME280;22402;42.746;23.606;2022-10-16T06:40:41;94294.81;;;10.95;83.18
36378;BME280;22402;42.746;23.606;2022-10-16T06:43:06;94297.88;;;11.01;83.51
36378;BME280;22402;42.746;23.606;2022-10-16T06:45:31;94304.81;;;11.11;84.28
36378;BME280;22402;42.746;23.606;2022-10-16T06:47:57;94302.72;;;11.26;83.76
36378;BME280;22402;42.746;23.606;2022-10-16T06:50:23;94309.72;;;11.47;84.19
36378;BME280;22402;42.746;23.606;2022-10-16T06:52:48;94305.97;;;11.60;82.56
36378;BME280;22402;42.746;23.606;2022-10-16T06:55:13;94317.91;;;11.84;82.71
36378;BME280;22402;42.746;23.606;2022-10-16T06:57:39;94326.28;;;12.08;82.67
36378;BME280;22402;42.746;23.606;2022-10-16T07:00:05;94315.06;;;12.27;81.99
36378;BME280;22402;42.746;23.606;2022-10-16T07:02:30;94320.91;;;12.50;80.41
36378;BME280;22402;42.746;23.606;2022-10-16T07:04:56;94325.22;;;12.71;80.32
36378;BME280;22402;42.746;23.606;2022-10-16T07:07:21;94327.00;;;12.90;78.95
36378;BME280;22402;42.746;23.606;2022-10-16T07:09:47;94333.34;;;13.07;78.58
36378;BME280;22402;42.746;23.606;2022-10-16T07:12:12;94331.72;;;13.25;78.07
36378;BME280;22402;42.746;23.606;2022-10-16T07:14:37;94332.81;;;13.42;76.34
36378;BME280;22402;42.746;23.606;2022-10-16T07:17:03;94332.13;;;13.59;76.08
36378;BME280;22402;42.746;23.606;2022-10-16T07:19:28;94336.19;;;13.81;74.52
36378;BME280;22402;42.746;23.606;2022-10-16T07:21:53;94338.59;;;14.02;73.45
36378;BME280;22402;42.746;23.606;2022-10-16T07:24:19;94332.44;;;14.21;72.96
36378;BME280;22402;42.746;23.606;2022-10-16T07:26:45;94336.63;;;14.42;72.75
36378;BME280;22402;42.746;23.606;2022-10-16T07:29:18;94329.31;;;14.55;71.89
36378;BME280;22402;42.746;23.606;2022-10-16T07:31:44;94327.72;;;14.62;70.93
36378;BME280;22402;42.746;23.606;2022-10-16T07:34:13;94331.19;;;14.80;71.01
36378;BME280;22402;42.746;23.606;2022-10-16T07:36:39;94333.19;;;14.96;70.41
36378;BME280;22402;42.746;23.606;2022-10-16T07:39:05;94330.41;;;15.16;69.30
36378;BME280;22402;42.746;23.606;2022-10-16T07:41:30;94333.00;;;15.34;68.55
36378;BME280;22402;42.746;23.606;2022-10-16T07:43:56;94327.22;;;15.48;68.36
36378;BME280;22402;42.746;23.606;2022-10-16T07:46:22;94325.31;;;15.58;67.21
36378;BME280;22402;42.746;23.606;2022-10-16T07:48:48;94324.69;;;15.64;67.13
36378;BME280;22402;42.746;23.606;2022-10-16T07:51:16;94342.25;;;15.74;66.86
36378;BME280;22402;42.746;23.606;2022-10-16T07:53:42;94336.72;;;15.85;66.63
36378;BME280;22402;42.746;23.606;2022-10-16T07:56:07;94338.78;;;15.99;65.85
36378;BME280;22402;42.746;23.606;2022-10-16T07:58:34;94330.94;;;16.07;65.32
36378;BME280;22402;42.746;23.606;2022-10-16T08:01:04;94333.50;;;16.25;64.52
36378;BME280;22402;42.746;23.606;2022-10-16T08:03:30;94332.41;;;16.44;64.66
36378;BME280;22402;42.746;23.606;2022-10-16T08:05:57;94338.72;;;16.51;62.93
36378;BME280;22402;42.746;23.606;2022-10-16T08:08:22;94335.72;;;16.46;63.31
36378;BME280;22402;42.746;23.606;2022-10-16T08:10:48;94345.25;;;16.47;63.20
36378;BME280;22402;42.746;23.606;2022-10-16T08:13:13;94342.66;;;16.55;63.35
36378;BME280;22402;42.746;23.606;2022-10-16T08:15:39;94340.09;;;16.72;63.06
36378;BME280;22402;42.746;23.606;2022-10-16T08:18:05;94338.22;;;16.90;62.83
36378;BME280;22402;42.746;23.606;2022-10-16T08:20:32;94346.47;;;17.03;60.79
36378;BME280;22402;42.746;23.606;2022-10-16T08:22:59;94337.59;;;17.13;61.81
36378;BME280;22402;42.746;23.606;2022-10-16T08:25:24;94339.44;;;17.28;61.39
36378;BME280;22402;42.746;23.606;2022-10-16T08:27:50;94328.38;;;17.33;61.03
36378;BME280;22402;42.746;23.606;2022-10-16T08:30:17;94331.38;;;17.46;60.30
36378;BME280;22402;42.746;23.606;2022-10-16T08:32:43;94330.03;;;17.50;59.67
36378;BME280;22402;42.746;23.606;2022-10-16T08:35:09;94324.63;;;17.52;59.83
36378;BME280;22402;42.746;23.606;2022-10-16T08:37:35;94326.25;;;17.61;59.71
36378;BME280;22402;42.746;23.606;2022-10-16T08:40:01;94330.34;;;17.64;60.01
36378;BME280;22402;42.746;23.606;2022-10-16T08:51:03;94335.63;;;17.39;59.81
36378;BME280;22402;42.746;23.606;2022-10-16T08:53:44;94338.94;;;17.41;60.36
36378;BME280;22402;42.746;23.606;2022-10-16T08:56:13;94341.91;;;17.38;59.52
36378;BME280;22402;42.746;23.606;2022-10-16T08:58:38;94346.03;;;17.41;60.19
36378;BME280;22402;42.746;23.606;2022-10-16T09:01:12;94337.63;;;17.45;59.91
36378;BME280;22402;42.746;23.606;2022-10-16T09:06:46;94332.84;;;17.49;60.22
36378;BME280;22402;42.746;23.606;2022-10-16T09:09:21;94329.56;;;17.47;60.19
36378;BME280;22402;42.746;23.606;2022-10-16T09:14:50;94328.72;;;17.38;59.36
36378;BME280;22402;42.746;23.606;2022-10-16T09:17:20;94339.59;;;17.27;59.23
36378;BME280;22402;42.746;23.606;2022-10-16T09:19:56;94338.28;;;17.23;59.05
36378;BME280;22402;42.746;23.606;2022-10-16T09:22:27;94335.28;;;17.18;59.10
36378;BME280;22402;42.746;23.606;2022-10-16T09:24:54;94336.28;;;17.25;59.98
36378;BME280;22402;42.746;23.606;2022-10-16T09:27:20;94336.63;;;17.30;59.47
36378;BME280;22402;42.746;23.606;2022-10-16T09:29:45;94325.09;;;17.39;58.87
36378;BME280;22402;42.746;23.606;2022-10-16T09:32:17;94322.94;;;17.43;58.87
36378;BME280;22402;42.746;23.606;2022-10-16T09:34:49;94320.16;;;17.52;59.16
36378;BME280;22402;42.746;23.606;2022-10-16T09:37:18;94322.78;;;17.61;58.75
36378;BME280;22402;42.746;23.606;2022-10-16T09:39:51;94322.78;;;17.69;57.68
36378;BME280;22402;42.746;23.606;2022-10-16T09:42:22;94324.13;;;17.81;56.80
36378;BME280;22402;42.746;23.606;2022-10-16T09:44:50;94316.19;;;17.81;55.75
36378;BME280;22402;42.746;23.606;2022-10-16T09:47:22;94321.16;;;17.84;55.22
36378;BME280;22402;42.746;23.606;2022-10-16T09:49:53;94315.88;;;17.84;55.10
36378;BME280;22402;42.746;23.606;2022-10-16T09:52:19;94318.34;;;17.86;55.28
36378;BME280;22402;42.746;23.606;2022-10-16T09:55:13;94320.97;;;17.94;55.95
36378;BME280;22402;42.746;23.606;2022-10-16T09:57:49;94312.22;;;18.02;55.73
36378;BME280;22402;42.746;23.606;2022-10-16T10:00:16;94308.25;;;18.06;55.08
36378;BME280;22402;42.746;23.606;2022-10-16T10:02:41;94307.25;;;18.15;55.39
36378;BME280;22402;42.746;23.606;2022-10-16T10:05:18;94313.47;;;18.22;53.39
36378;BME280;22402;42.746;23.606;2022-10-16T10:07:45;94313.13;;;18.25;52.76
36378;BME280;22402;42.746;23.606;2022-10-16T10:10:21;94304.22;;;18.26;53.22
36378;BME280;22402;42.746;23.606;2022-10-16T10:12:47;94303.06;;;18.29;53.91
36378;BME280;22402;42.746;23.606;2022-10-16T10:15:13;94297.09;;;18.35;54.03
36378;BME280;22402;42.746;23.606;2022-10-16T10:17:48;94301.69;;;18.41;53.09
36378;BME280;22402;42.746;23.606;2022-10-16T10:20:34;94293.28;;;18.45;51.88
36378;BME280;22402;42.746;23.606;2022-10-16T10:23:01;94290.13;;;18.50;52.57
36378;BME280;22402;42.746;23.606;2022-10-16T10:34:18;94290.25;;;18.57;51.70
36378;BME280;22402;42.746;23.606;2022-10-16T10:36:55;94280.84;;;18.54;52.85
36378;BME280;22402;42.746;23.606;2022-10-16T10:39:36;94287.59;;;18.65;53.69
36378;BME280;22402;42.746;23.606;2022-10-16T10:42:33;94285.88;;;18.72;52.76
36378;BME280;22402;42.746;23.606;2022-10-16T10:45:28;94286.56;;;18.74;52.80
36378;BME280;22402;42.746;23.606;2022-10-16T10:53:48;94288.16;;;18.83;53.48
36378;BME280;22402;42.746;23.606;2022-10-16T10:56:47;94287.28;;;18.91;52.81
36378;BME280;22402;42.746;23.606;2022-10-16T11:07:25;94267.94;;;18.99;51.89
36378;BME280;22402;42.746;23.606;2022-10-16T11:10:20;94257.47;;;19.05;51.97
36378;BME280;22402;42.746;23.606;2022-10-16T11:12:58;94259.59;;;19.10;51.52
36378;BME280;22402;42.746;23.606;2022-10-16T11:17:59;94252.47;;;19.10;50.72
36378;BME280;22402;42.746;23.606;2022-10-16T11:20:31;94253.09;;;19.12;50.30
36378;BME280;22402;42.746;23.606;2022-10-16T11:25:32;94255.94;;;19.11;48.86
36378;BME280;22402;42.746;23.606;2022-10-16T11:28:20;94253.97;;;19.13;49.56
36378;BME280;22402;42.746;23.606;2022-10-16T11:33:37;94254.88;;;19.20;47.70
36378;BME280;22402;42.746;23.606;2022-10-16T11:36:19;94254.88;;;19.20;47.57
36378;BME280;22402;42.746;23.606;2022-10-16T11:41:40;94254.63;;;19.30;46.85
36378;BME280;22402;42.746;23.606;2022-10-16T11:46:34;94248.81;;;19.34;45.76
36378;BME280;22402;42.746;23.606;2022-10-16T11:49:21;94245.47;;;19.41;45.80
36378;BME280;22402;42.746;23.606;2022-10-16T11:57:14;94243.13;;;19.46;45.63
36378;BME280;22402;42.746;23.606;2022-10-16T12:04:57;94246.97;;;19.58;42.30
36378;BME280;22402;42.746;23.606;2022-10-16T12:07:32;94242.41;;;19.52;38.60
36378;BME280;22402;42.746;23.606;2022-10-16T12:10:11;94246.22;;;19.49;38.97
36378;BME280;22402;42.746;23.606;2022-10-16T12:12:43;94248.41;;;19.46;38.07
36378;BME280;22402;42.746;23.606;2022-10-16T12:15:35;94243.13;;;19.46;38.05
36378;BME280;22402;42.746;23.606;2022-10-16T12:18:00;94242.81;;;19.41;37.97
36378;BME280;22402;42.746;23.606;2022-10-16T12:20:27;94244.72;;;19.32;36.85
36378;BME280;22402;42.746;23.606;2022-10-16T12:22:55;94245.41;;;19.26;37.10
36378;BME280;22402;42.746;23.606;2022-10-16T12:25:36;94242.66;;;19.19;36.26
36378;BME280;22402;42.746;23.606;2022-10-16T12:30:31;94247.25;;;19.02;35.79
36378;BME280;22402;42.746;23.606;2022-10-16T12:33:01;94251.13;;;18.92;36.81
36378;BME280;22402;42.746;23.606;2022-10-16T12:35:30;94248.00;;;18.88;36.56
36378;BME280;22402;42.746;23.606;2022-10-16T12:38:17;94257.75;;;18.87;36.54
36378;BME280;22402;42.746;23.606;2022-10-16T12:40:44;94244.44;;;18.81;37.46
36378;BME280;22402;42.746;23.606;2022-10-16T12:43:26;94255.00;;;18.81;38.04
36378;BME280;22402;42.746;23.606;2022-10-16T12:46:04;94253.81;;;18.83;37.77
36378;BME280;22402;42.746;23.606;2022-10-16T12:48:30;94255.00;;;18.81;37.70
36378;BME280;22402;42.746;23.606;2022-10-16T12:50:56;94272.00;;;18.78;38.48
36378;BME280;22402;42.746;23.606;2022-10-16T12:53:26;94270.19;;;18.71;38.32
36378;BME280;22402;42.746;23.606;2022-10-16T13:09:47;94281.81;;;18.22;40.08
36378;BME280;22402;42.746;23.606;2022-10-16T13:20:22;94293.25;;;18.06;41.31
36378;BME280;22402;42.746;23.606;2022-10-16T13:23:03;94288.66;;;18.00;41.90
36378;BME280;22402;42.746;23.606;2022-10-16T13:28:22;94287.84;;;17.99;42.09
36378;BME280;22402;42.746;23.606;2022-10-16T13:30:53;94284.53;;;17.97;40.92
36378;BME280;22402;42.746;23.606;2022-10-16T13:33:27;94284.88;;;17.94;40.87
36378;BME280;22402;42.746;23.606;2022-10-16T13:35:56;94287.66;;;17.93;41.50
36378;BME280;22402;42.746;23.606;2022-10-16T13:38:24;94286.84;;;17.92;41.81
36378;BME280;22402;42.746;23.606;2022-10-16T13:41:00;94291.44;;;17.90;40.55
36378;BME280;22402;42.746;23.606;2022-10-16T13:43:42;94282.09;;;17.88;41.47
36378;BME280;22402;42.746;23.606;2022-10-16T13:46:16;94284.22;;;17.84;41.16
36378;BME280;22402;42.746;23.606;2022-10-16T13:48:42;94291.81;;;17.79;40.49
36378;BME280;22402;42.746;23.606;2022-10-16T13:51:16;94286.84;;;17.76;41.30
36378;BME280;22402;42.746;23.606;2022-10-16T13:53:43;94292.13;;;17.76;41.42
36378;BME280;22402;42.746;23.606;2022-10-16T13:56:15;94296.41;;;17.69;41.33
36378;BME280;22402;42.746;23.606;2022-10-16T13:58:40;94299.72;;;17.63;41.18
36378;BME280;22402;42.746;23.606;2022-10-16T14:01:25;94304.31;;;17.61;41.73
36378;BME280;22402;42.746;23.606;2022-10-16T14:03:52;94296.75;;;17.58;41.59
36378;BME280;22402;42.746;23.606;2022-10-16T14:06:20;94301.03;;;17.50;41.60
36378;BME280;22402;42.746;23.606;2022-10-16T14:08:57;94300.91;;;17.52;41.05
36378;BME280;22402;42.746;23.606;2022-10-16T14:11:24;94307.47;;;17.48;41.71
36378;BME280;22402;42.746;23.606;2022-10-16T14:13:50;94307.97;;;17.43;40.79
36378;BME280;22402;42.746;23.606;2022-10-16T14:16:22;94303.53;;;17.36;41.33
36378;BME280;22402;42.746;23.606;2022-10-16T14:21:24;94308.28;;;17.24;41.92
36378;BME280;22402;42.746;23.606;2022-10-16T14:23:49;94314.22;;;17.18;42.30
36378;BME280;22402;42.746;23.606;2022-10-16T14:26:18;94309.59;;;17.12;41.94
36378;BME280;22402;42.746;23.606;2022-10-16T14:28:45;94316.19;;;17.07;42.80
36378;BME280;22402;42.746;23.606;2022-10-16T14:31:29;94310.25;;;17.05;43.12
36378;BME280;22402;42.746;23.606;2022-10-16T14:33:55;94315.34;;;16.99;42.62
36378;BME280;22402;42.746;23.606;2022-10-16T14:36:21;94304.28;;;16.95;43.05
36378;BME280;22402;42.746;23.606;2022-10-16T14:39:03;94310.88;;;16.91;42.92
36378;BME280;22402;42.746;23.606;2022-10-16T14:41:40;94318.09;;;16.81;43.39
36378;BME280;22402;42.746;23.606;2022-10-16T14:44:06;94314.75;;;16.71;44.26
36378;BME280;22402;42.746;23.606;2022-10-16T14:46:36;94316.88;;;16.67;44.08
36378;BME280;22402;42.746;23.606;2022-10-16T14:51:34;94325.56;;;16.59;44.41